Peristerion, Greece
Current Conditions -  °F | °C
As of 4:20 PM on Monday 22 Dec 2014 (Local Time) from LGEL Reporting Station
Few Clouds Few Clouds  
Wind Chill: 54°   Ceiling: Unl
Heat Index: 54°   Visibility: 6mi
Dew Point: 30°   Wind: 9mph
Humidity: 41%   Direction: 350°N
Pressure: 30.36"   Gusts: NA
Location:  38.02°N, 23.7°E
Report Text: LGEL 221320Z 35008KT 9999 FEW025 12/M01 Q1028
Loading
Personal Weather Stations






























Interactive Weather Map New forecast layout! Learn more

10-Day Weather Forecast

Advertisements
Track Severe Weather on mobile